Time;durP1;ratioP1;P1;durP2;ratioP2;P2;SDS_P1;SDS_P2;PMS_P1;PMS_P2;Temp;Humidity;BMP_temperature;BMP_pressure;BME280_temperature;BME280_humidity;BME280_pressure;Samples;Min_cycle;Max_cycle;Signal;HPM_P1;HPM_P2
2022/09/11 00:00:41;;;;;;;14.93;13.85;;;;;;;15.05;100.00;101699.44;5073877;28;20058;-75
2022/09/11 00:03:07;;;;;;;15.85;14.85;;;;;;;14.98;100.00;101696.59;5075206;28;20528;-74
2022/09/11 00:05:37;;;;;;;13.75;12.70;;;;;;;14.94;100.00;101691.75;5081900;28;20111;-74
2022/09/11 00:08:03;;;;;;;12.45;11.35;;;;;;;14.90;100.00;101687.72;5078205;28;20036;-73
2022/09/11 00:10:28;;;;;;;11.00;10.35;;;;;;;14.85;100.00;101688.22;5076964;28;20118;-73
2022/09/11 00:12:54;;;;;;;13.00;11.90;;;;;;;14.77;100.00;101694.28;5076773;28;20039;-74
2022/09/11 00:15:19;;;;;;;13.95;12.77;;;;;;;14.58;100.00;101667.94;5077921;28;20034;-74
2022/09/11 00:17:45;;;;;;;13.80;13.00;;;;;;;14.77;100.00;101690.81;5078145;28;20381;-74
2022/09/11 00:20:10;;;;;;;14.10;13.00;;;;;;;14.74;100.00;101691.97;5072439;28;20074;-74
2022/09/11 00:22:35;;;;;;;12.50;11.70;;;;;;;14.37;100.00;101634.59;5063260;28;20472;-74
2022/09/11 00:25:01;;;;;;;10.55;9.85;;;;;;;14.74;100.00;101697.28;5078682;28;20039;-75
2022/09/11 00:27:26;;;;;;;10.95;10.25;;;;;;;14.71;100.00;101697.56;5074183;28;20032;-75
2022/09/11 00:29:53;;;;;;;13.50;12.75;;;;;;;14.67;100.00;101701.53;5080401;28;20037;-73
2022/09/11 00:32:18;;;;;;;12.93;12.05;;;;;;;14.59;100.00;101685.56;5080462;28;20024;-75
2022/09/11 00:34:45;;;;;;;12.20;11.32;;;;;;;14.64;100.00;101704.50;5075619;28;20059;-73
2022/09/11 00:37:11;;;;;;;12.25;11.27;;;;;;;14.55;100.00;101684.19;5076089;28;20020;-75
2022/09/11 00:39:36;;;;;;;12.95;11.85;;;;;;;14.57;100.00;101692.84;5077352;28;20051;-74
2022/09/11 00:42:04;;;;;;;12.50;11.75;;;;;;;14.55;100.00;101702.78;5055010;28;20563;-74
2022/09/11 00:44:29;;;;;;;12.50;11.73;;;;;;;14.52;100.00;101703.06;5073629;28;20074;-75
2022/09/11 00:47:01;;;;;;;12.32;11.55;;;;;;;14.51;100.00;101699.56;5075634;28;20442;-73
2022/09/11 00:49:30;;;;;;;11.85;11.02;;;;;;;14.48;100.00;101702.56;5077560;28;20051;-73
2022/09/11 00:52:07;;;;;;;13.80;13.00;;;;;;;14.45;100.00;101709.97;5082121;28;20107;-73
2022/09/11 00:54:40;;;;;;;12.32;11.32;;;;;;;14.33;100.00;101690.81;5073341;28;20107;-73
2022/09/11 00:57:07;;;;;;;11.57;10.88;;;;;;;14.33;100.00;101696.94;5072577;28;20102;-73
2022/09/11 00:59:33;;;;;;;10.68;9.65;;;;;;;14.37;100.00;101708.94;5077493;28;20029;-73
2022/09/11 01:02:00;;;;;;;8.98;8.38;;;;;;;14.31;100.00;101698.94;5081229;28;20029;-73
2022/09/11 01:04:27;;;;;;;9.95;8.98;;;;;;;14.30;100.00;101712.34;5072790;28;20032;-74
2022/09/11 01:06:56;;;;;;;9.85;9.10;;;;;;;14.28;100.00;101706.34;5072396;28;20028;-73
2022/09/11 01:09:24;;;;;;;9.98;9.23;;;;;;;14.29;100.00;101705.38;5080281;28;20360;-73
2022/09/11 01:12:15;;;;;;;9.50;8.90;;;;;;;14.18;100.00;101691.34;5075150;28;20052;-73
2022/09/11 01:15:02;;;;;;;;;;;;;;;14.25;100.00;101715.47;5096680;28;20446;-74
2022/09/11 01:17:37;;;;;;;10.38;9.68;;;;;;;14.24;100.00;101707.63;5059762;28;19915;-74
2022/09/11 01:20:30;;;;;;;8.63;8.02;;;;;;;14.23;100.00;101709.47;5074056;28;20042;-74
2022/09/11 01:23:12;;;;;;;9.15;8.45;;;;;;;14.21;100.00;101700.81;5083666;28;20032;-74
2022/09/11 01:26:14;;;;;;;10.23;8.90;;;;;;;14.21;100.00;101700.81;5078053;28;20396;-74
2022/09/11 01:28:51;;;;;;;9.02;8.43;;;;;;;14.19;100.00;101694.81;5078221;28;20443;-73
2022/09/11 01:31:22;;;;;;;11.00;9.10;;;;;;;14.18;100.00;101701.97;5078813;28;20110;-73
2022/09/11 01:34:04;;;;;;;7.97;7.45;;;;;;;14.05;100.00;101679.47;5077202;28;20048;-74
2022/09/11 01:36:40;;;;;;;9.80;8.93;;;;;;;14.14;100.00;101694.47;5082568;28;20465;-74
2022/09/11 01:39:05;;;;;;;8.65;8.15;;;;;;;14.04;100.00;101680.44;5077188;28;20028;-74
2022/09/11 01:41:47;;;;;;;10.38;9.45;;;;;;;14.13;100.00;101701.59;5080501;28;20098;-74
2022/09/11 01:44:16;;;;;;;10.60;9.57;;;;;;;14.17;100.00;101707.41;5078404;28;20035;-74
2022/09/11 01:46:48;;;;;;;12.43;11.65;;;;;;;14.20;100.00;101707.97;5082636;28;20029;-74
2022/09/11 01:49:16;;;;;;;9.93;9.23;;;;;;;14.18;100.00;101703.78;5082412;28;20561;-73
2022/09/11 01:51:42;;;;;;;10.82;10.07;;;;;;;14.19;100.00;101710.75;5082839;28;20110;-73
2022/09/11 01:54:15;;;;;;;9.75;8.95;;;;;;;14.18;100.00;101709.09;5087534;28;20033;-73
2022/09/11 01:56:59;;;;;;;9.45;8.65;;;;;;;14.16;100.00;101706.59;5081435;28;20461;-75
2022/09/11 01:59:52;;;;;;;10.57;9.93;;;;;;;14.13;100.00;101706.06;5081003;28;20027;-73
2022/09/11 02:02:26;;;;;;;11.40;10.70;;;;;;;14.11;100.00;101713.34;5081309;28;20024;-73
2022/09/11 02:05:02;;;;;;;12.20;11.35;;;;;;;14.12;100.00;101717.66;5076206;28;20021;-73
2022/09/11 02:07:44;;;;;;;11.52;10.77;;;;;;;14.16;100.00;101709.25;5078612;28;20057;-74
2022/09/11 02:10:19;;;;;;;10.38;9.73;;;;;;;14.16;100.00;101703.94;5080673;28;20023;-74
2022/09/11 02:13:10;;;;;;;8.43;7.93;;;;;;;14.14;100.00;101694.47;5074783;28;20036;-73
2022/09/11 02:15:44;;;;;;;9.65;8.77;;;;;;;14.22;100.00;101709.63;5035882;28;20046;-73
2022/09/11 02:18:53;;;;;;;11.52;10.57;;;;;;;14.16;100.00;101703.13;5080794;28;20039;-74
2022/09/11 02:21:18;;;;;;;11.75;10.90;;;;;;;14.27;100.00;101712.66;5072878;28;20056;-73
2022/09/11 02:23:44;;;;;;;9.90;9.00;;;;;;;14.27;100.00;101710.84;5083566;28;20112;-73
2022/09/11 02:26:12;;;;;;;9.38;8.48;;;;;;;14.23;100.00;101712.13;5083860;28;20468;-75
2022/09/11 02:28:38;;;;;;;10.65;9.77;;;;;;;14.20;100.00;101717.75;5080264;28;20505;-73
2022/09/11 02:31:04;;;;;;;9.98;9.02;;;;;;;14.04;100.00;101696.34;5079130;28;20057;-73
2022/09/11 02:33:34;;;;;;;11.27;10.15;;;;;;;14.06;100.00;101705.00;5061109;28;20037;-74
2022/09/11 02:36:34;;;;;;;10.18;9.38;;;;;;;14.09;100.00;101721.47;5080730;28;20037;-73
2022/09/11 02:39:21;;;;;;;8.30;7.60;;;;;;;14.07;100.00;101722.63;5084830;28;20062;-73
2022/09/11 02:42:06;;;;;;;8.68;8.05;;;;;;;14.00;100.00;101719.69;5076112;28;20105;-73
2022/09/11 02:45:00;;;;;;;8.52;7.90;;;;;;;13.94;100.00;101715.03;5079937;28;20024;-74
2022/09/11 02:47:41;;;;;;;8.45;7.85;;;;;;;13.92;100.00;101719.66;5073437;28;20534;-74
2022/09/11 02:50:17;;;;;;;7.50;6.97;;;;;;;13.91;100.00;101726.75;5073224;28;20384;-74
2022/09/11 02:52:51;;;;;;;7.38;6.88;;;;;;;13.85;100.00;101716.75;5075768;28;20016;-74
2022/09/11 02:55:30;;;;;;;9.25;8.65;;;;;;;13.90;100.00;101732.22;5084457;28;20028;-74
2022/09/11 02:57:58;;;;;;;10.48;9.38;;;;;;;13.90;100.00;101730.41;5082258;28;20157;-74
2022/09/11 03:00:24;;;;;;;9.40;8.60;;;;;;;13.93;100.00;101727.44;5082121;28;20020;-74
2022/09/11 03:02:49;;;;;;;9.70;8.90;;;;;;;13.87;100.00;101722.75;5076563;28;20027;-74
2022/09/11 03:05:14;;;;;;;9.45;8.65;;;;;;;13.89;100.00;101719.94;5070079;28;20031;-74
2022/09/11 03:07:40;;;;;;;7.72;7.20;;;;;;;13.74;100.00;101709.00;5076424;28;20024;-74
2022/09/11 03:10:07;;;;;;;9.07;8.48;;;;;;;13.83;100.00;101724.03;5083021;28;20032;-74
2022/09/11 03:12:32;;;;;;;9.10;8.50;;;;;;;13.81;100.00;101728.66;5076833;28;20369;-74
2022/09/11 03:14:58;;;;;;;8.95;8.35;;;;;;;13.82;100.00;101722.34;5074781;28;20039;-74
2022/09/11 03:17:24;;;;;;;10.00;9.25;;;;;;;13.74;100.00;101723.09;5077855;28;20025;-74
2022/09/11 03:19:49;;;;;;;7.97;7.38;;;;;;;13.65;100.00;101713.38;5073076;28;20027;-74
2022/09/11 03:22:15;;;;;;;9.40;8.48;;;;;;;13.75;100.00;101729.25;5063685;28;20032;-74
2022/09/11 03:24:40;;;;;;;9.45;8.82;;;;;;;13.77;100.00;101738.72;5080872;28;20032;-74
2022/09/11 03:27:05;;;;;;;8.70;8.10;;;;;;;13.75;100.00;101740.69;5078649;28;20031;-74
2022/09/11 03:29:32;;;;;;;8.95;8.27;;;;;;;13.66;100.00;101725.66;5080294;28;20016;-74
2022/09/11 03:31:58;;;;;;;8.45;7.95;;;;;;;13.70;100.00;101742.13;5073028;28;20025;-74
2022/09/11 03:34:24;;;;;;;8.90;8.40;;;;;;;13.62;100.00;101734.91;5069863;28;20638;-74
2022/09/11 03:36:50;;;;;;;10.15;9.55;;;;;;;13.66;100.00;101736.28;5084024;28;20031;-74
2022/09/11 03:39:15;;;;;;;10.32;9.52;;;;;;;13.66;100.00;101738.09;5081014;28;20032;-74
2022/09/11 03:41:40;;;;;;;11.60;10.75;;;;;;;13.65;100.00;101739.06;5076960;28;20055;-74
2022/09/11 03:44:06;;;;;;;11.95;11.10;;;;;;;13.51;100.00;101727.16;5083286;28;20028;-75
2022/09/11 03:46:32;;;;;;;10.60;10.00;;;;;;;13.58;100.00;101739.66;5041378;28;20556;-75
2022/09/11 03:48:58;;;;;;;13.95;13.05;;;;;;;13.58;100.00;101744.13;5080668;28;20488;-74
2022/09/11 03:51:25;;;;;;;12.10;11.40;;;;;;;13.57;100.00;101740.66;5080161;28;20024;-74
2022/09/11 03:53:51;;;;;;;11.35;10.43;;;;;;;13.42;100.00;101723.56;5077856;28;20358;-75
2022/09/11 03:56:16;;;;;;;13.40;12.55;;;;;;;13.46;100.00;101732.91;5071901;28;20031;-74
2022/09/11 03:58:42;;;;;;;13.60;12.60;;;;;;;13.55;100.00;101750.56;5075958;28;20024;-74
2022/09/11 04:01:13;;;;;;;12.82;12.18;;;;;;;13.49;100.00;101735.25;5077580;28;20074;-74
2022/09/11 04:03:39;;;;;;;12.73;11.98;;;;;;;13.56;100.00;101746.91;5079999;28;20065;-74
2022/09/11 04:06:05;;;;;;;13.13;12.20;;;;;;;13.58;100.00;101752.09;5080599;28;20035;-75
2022/09/11 04:08:32;;;;;;;11.60;10.95;;;;;;;13.56;100.00;101744.28;5073947;28;20024;-75
2022/09/11 04:10:59;;;;;;;11.23;10.63;;;;;;;13.66;100.00;101751.38;5081176;28;20460;-75
2022/09/11 04:13:29;;;;;;;9.93;9.25;;;;;;;13.74;100.00;101760.25;5079195;28;20043;-74
2022/09/11 04:15:59;;;;;;;8.25;7.75;;;;;;;13.79;100.00;101762.47;5078680;28;20032;-74
2022/09/11 04:18:25;;;;;;;7.30;6.90;;;;;;;13.74;100.00;101754.09;5080896;28;20020;-74
2022/09/11 04:20:50;;;;;;;9.95;9.30;;;;;;;13.82;100.00;101756.84;5081224;28;20477;-75
2022/09/11 04:23:16;;;;;;;10.93;10.23;;;;;;;13.78;100.00;101750.16;5079366;28;20505;-74
2022/09/11 04:25:41;;;;;;;13.20;12.38;;;;;;;13.90;100.00;101767.56;5072691;28;20052;-74
2022/09/11 04:28:06;;;;;;;13.15;12.55;;;;;;;13.79;100.00;101752.66;5079951;28;20024;-74
2022/09/11 04:30:37;;;;;;;14.48;13.77;;;;;;;13.85;100.00;101772.47;5080555;28;20067;-75
2022/09/11 04:33:04;;;;;;;14.77;14.07;;;;;;;13.56;100.00;101727.53;5078482;28;20097;-74
2022/09/11 04:35:30;;;;;;;12.80;11.80;;;;;;;13.76;100.00;101762.72;5076000;28;20290;-74
2022/09/11 04:37:55;;;;;;;12.57;11.88;;;;;;;13.76;100.00;101771.56;5080085;28;20174;-74
2022/09/11 04:40:20;;;;;;;10.65;9.82;;;;;;;13.68;100.00;101766.16;5076013;28;20408;-74
2022/09/11 04:42:46;;;;;;;9.55;8.85;;;;;;;13.60;100.00;101774.00;5075019;28;20047;-74
2022/09/11 04:45:12;;;;;;;10.05;9.25;;;;;;;13.53;100.00;101778.22;5087237;28;20024;-75
2022/09/11 04:47:37;;;;;;;8.93;8.30;;;;;;;13.48;100.00;101776.03;5072474;28;20051;-75
2022/09/11 04:50:02;;;;;;;8.10;7.55;;;;;;;13.46;100.00;101777.97;5083777;28;20032;-75
2022/09/11 04:52:28;;;;;;;8.82;8.43;;;;;;;13.23;100.00;101755.44;5071124;28;20155;-75
2022/09/11 04:54:53;;;;;;;10.02;9.32;;;;;;;13.38;100.00;101781.34;5082230;28;20020;-75
2022/09/11 04:57:19;;;;;;;8.10;7.40;;;;;;;13.31;100.00;101782.91;5089183;28;20404;-75
2022/09/11 04:59:44;;;;;;;8.85;7.25;;;;;;;13.28;100.00;101783.22;5081000;28;20025;-74
2022/09/11 05:02:09;;;;;;;7.15;6.65;;;;;;;13.26;100.00;101785.16;5081306;28;20024;-75
2022/09/11 05:04:35;;;;;;;8.65;7.90;;;;;;;13.21;100.00;101797.16;5082202;28;20056;-75
2022/09/11 05:07:01;;;;;;;8.45;7.85;;;;;;;13.07;100.00;101793.16;5074523;28;20408;-75
2022/09/11 05:09:26;;;;;;;8.32;7.75;;;;;;;13.05;100.00;101795.09;5056920;28;20032;-75
2022/09/11 05:11:52;;;;;;;7.30;6.70;;;;;;;13.01;100.00;101793.72;5077747;28;20085;-75
2022/09/11 05:14:17;;;;;;;6.78;6.28;;;;;;;13.06;100.00;101794.94;5062735;28;20106;-75
2022/09/11 05:16:44;;;;;;;7.55;7.05;;;;;;;13.05;100.00;101803.06;5077780;28;20028;-75
2022/09/11 05:19:09;;;;;;;7.60;6.88;;;;;;;13.12;100.00;101806.78;5081436;28;20020;-74
2022/09/11 05:21:35;;;;;;;7.72;7.07;;;;;;;13.13;100.00;101814.63;5078083;28;20036;-74
2022/09/11 05:24:01;;;;;;;7.78;6.90;;;;;;;13.10;100.00;101809.56;5082019;28;20032;-75
2022/09/11 05:26:33;;;;;;;6.22;5.72;;;;;;;13.15;100.00;101814.44;5081122;28;20028;-75
2022/09/11 05:29:01;;;;;;;7.50;6.93;;;;;;;13.16;100.00;101813.47;5080474;28;20103;-75
2022/09/11 05:31:33;;;;;;;8.30;7.70;;;;;;;13.14;100.00;101808.31;5085507;28;20086;-75
2022/09/11 05:33:59;;;;;;;8.32;7.72;;;;;;;13.28;100.00;101822.09;5075076;28;20048;-75
2022/09/11 05:36:25;;;;;;;7.30;6.80;;;;;;;13.24;100.00;101810.97;5073978;28;20080;-75
2022/09/11 05:38:51;;;;;;;8.10;7.50;;;;;;;13.34;100.00;101832.16;5076530;28;20145;-75
2022/09/11 05:41:17;;;;;;;7.88;7.38;;;;;;;13.37;100.00;101831.88;5081048;28;20115;-75
2022/09/11 05:43:43;;;;;;;9.20;8.70;;;;;;;13.40;100.00;101836.88;5082873;28;20099;-75
2022/09/11 05:46:14;;;;;;;8.88;8.38;;;;;;;13.40;100.00;101831.59;5075442;28;20030;-75
2022/09/11 05:48:39;;;;;;;9.25;8.70;;;;;;;13.52;100.00;101845.50;5072795;28;20024;-75
2022/09/11 05:51:09;;;;;;;9.77;9.10;;;;;;;13.58;100.00;101845.75;5080095;28;20541;-75
2022/09/11 05:53:36;;;;;;;9.50;9.00;;;;;;;13.64;100.00;101849.66;5084021;28;20134;-75
2022/09/11 05:56:12;;;;;;;9.43;8.82;;;;;;;13.71;100.00;101849.91;5081007;28;20469;-75
2022/09/11 05:58:38;;;;;;;10.93;10.27;;;;;;;13.71;100.00;101839.28;5079985;28;20044;-75
2022/09/11 06:01:07;;;;;;;9.63;9.13;;;;;;;13.83;100.00;101848.75;5073774;28;20020;-75
2022/09/11 06:03:33;;;;;;;11.77;11.23;;;;;;;13.91;100.00;101851.47;5078584;28;20025;-75
2022/09/11 06:06:01;;;;;;;12.10;11.48;;;;;;;13.95;100.00;101847.53;5076762;28;20031;-75
2022/09/11 06:08:27;;;;;;;13.50;12.80;;;;;;;14.07;100.00;101856.16;5078135;28;20051;-76
2022/09/11 06:10:52;;;;;;;15.00;14.25;;;;;;;14.16;100.00;101855.25;5077911;28;20113;-76
2022/09/11 06:13:18;;;;;;;16.00;15.20;;;;;;;14.22;100.00;101853.84;5073041;28;20028;-76
2022/09/11 06:15:47;;;;;;;15.45;14.73;;;;;;;14.31;100.00;101855.59;5076557;28;20500;-76
2022/09/11 06:18:16;;;;;;;15.77;14.98;;;;;;;14.38;100.00;101859.31;5073224;28;20115;-75
2022/09/11 06:20:42;;;;;;;15.20;14.30;;;;;;;14.45;100.00;101869.34;5073241;28;20712;-75
2022/09/11 06:23:10;;;;;;;13.68;12.98;;;;;;;14.54;100.00;101873.75;5073949;28;20130;-75
2022/09/11 06:25:36;;;;;;;15.07;14.18;;;;;;;14.58;100.00;101869.84;5059856;28;20191;-76
2022/09/11 06:28:01;;;;;;;16.77;15.88;;;;;;;14.64;100.00;101869.22;5056369;28;20031;-76
2022/09/11 06:30:27;;;;;;;15.40;14.52;;;;;;;14.66;100.00;101861.13;5071338;28;20416;-76
2022/09/11 06:32:55;;;;;;;14.80;13.95;;;;;;;14.81;100.00;101876.38;5074375;28;20487;-76
2022/09/11 06:35:22;;;;;;;16.27;15.48;;;;;;;14.81;100.00;101864.91;5074794;28;20062;-74
2022/09/11 06:37:48;;;;;;;17.23;16.00;;;;;;;14.87;100.00;101863.44;5068772;28;20412;-75
2022/09/11 06:40:13;;;;;;;15.98;14.75;;;;;;;15.09;100.00;101883.38;5073887;28;20016;-75
2022/09/11 06:42:38;;;;;;;14.60;13.80;;;;;;;15.20;100.00;101880.50;5071222;28;20047;-75
2022/09/11 06:45:06;;;;;;;14.70;13.90;;;;;;;15.32;100.00;101881.06;5073021;28;20028;-76
2022/09/11 06:47:31;;;;;;;15.90;14.73;;;;;;;15.45;100.00;101883.31;5077712;28;20040;-76
2022/09/11 06:49:56;;;;;;;15.25;14.45;;;;;;;15.56;100.00;101886.53;5074799;28;20035;-75
2022/09/11 06:52:22;;;;;;;15.77;14.98;;;;;;;15.70;100.00;101886.94;5072395;28;20390;-76
2022/09/11 06:54:49;;;;;;;16.15;15.35;;;;;;;15.81;100.00;101882.22;5073729;28;20392;-76
2022/09/11 06:57:14;;;;;;;18.45;17.63;;;;;;;15.93;100.00;101884.59;5072257;28;20169;-76
2022/09/11 06:59:41;;;;;;;20.45;19.45;;;;;;;16.07;100.00;101888.47;5072044;28;20439;-75
2022/09/11 07:02:08;;;;;;;19.60;18.67;;;;;;;16.22;100.00;101892.19;5074649;28;20025;-75
2022/09/11 07:04:33;;;;;;;20.42;19.42;;;;;;;16.29;100.00;101871.91;5071396;28;20507;-75
2022/09/11 07:06:58;;;;;;;18.10;17.20;;;;;;;16.50;100.00;101884.78;5055813;28;20025;-75
2022/09/11 07:09:24;;;;;;;20.98;19.98;;;;;;;16.66;100.00;101883.97;5065858;28;20032;-73
2022/09/11 07:11:50;;;;;;;20.02;19.08;;;;;;;16.78;100.00;101877.31;5065753;28;20032;-75
2022/09/11 07:14:20;;;;;;;19.38;18.38;;;;;;;17.09;100.00;101892.69;5065965;28;20516;-76
2022/09/11 07:16:48;;;;;;;12.02;11.32;;;;;;;17.53;100.00;101870.94;5063577;28;20764;-75
2022/09/11 07:19:13;;;;;;;17.77;16.67;;;;;;;18.48;100.00;101892.25;5063945;28;20054;-75
2022/09/11 07:21:38;;;;;;;45.42;43.60;;;;;;;19.65;100.00;101889.25;5068417;28;20036;-75
2022/09/11 07:24:04;;;;;;;46.85;44.50;;;;;;;20.92;100.00;101888.88;5068426;28;20024;-75
2022/09/11 07:26:30;;;;;;;25.05;24.00;;;;;;;22.33;92.81;101893.28;5072261;28;20119;-75
2022/09/11 07:28:57;;;;;;;19.17;18.17;;;;;;;23.64;87.24;101892.69;5070887;28;20033;-75
2022/09/11 07:31:27;;;;;;;17.67;16.80;;;;;;;25.10;80.56;101885.66;5063283;28;20032;-75
2022/09/11 07:33:54;;;;;;;7.32;7.03;;;;;;;26.00;74.65;101897.84;5066731;28;20044;-76
2022/09/11 07:36:25;;;;;;;4.38;4.07;;;;;;;26.75;71.94;101899.31;5072279;28;20082;-76
2022/09/11 07:38:50;;;;;;;4.15;2.85;;;;;;;27.57;67.87;101903.94;5070997;28;20024;-75
2022/09/11 07:41:18;;;;;;;3.63;3.35;;;;;;;28.40;66.20;101888.25;5066515;28;20043;-75
2022/09/11 07:43:44;;;;;;;4.78;4.50;;;;;;;29.17;63.09;101897.72;5070682;28;20159;-76
2022/09/11 07:46:11;;;;;;;7.28;6.63;;;;;;;29.59;62.54;101889.84;5065465;28;20516;-75
2022/09/11 07:48:37;;;;;;;9.18;8.70;;;;;;;30.47;59.75;101908.03;5069275;28;20028;-75
2022/09/11 07:51:05;;;;;;;12.27;11.68;;;;;;;31.37;56.22;101908.16;5070454;28;20032;-75
2022/09/11 07:53:33;;;;;;;15.00;14.20;;;;;;;31.37;54.80;101906.25;5069867;28;20020;-74
2022/09/11 07:56:03;;;;;;;18.15;17.27;;;;;;;31.31;55.84;101904.56;5074079;28;20337;-74
2022/09/11 07:58:33;;;;;;;15.75;15.10;;;;;;;31.23;54.77;101906.97;5047080;28;20025;-74
2022/09/11 08:00:59;;;;;;;13.93;13.23;;;;;;;30.15;55.73;101903.31;5071381;28;20072;-74
2022/09/11 08:03:25;;;;;;;11.55;11.00;;;;;;;29.31;57.51;101904.41;5069366;28;20025;-74
2022/09/11 08:05:56;;;;;;;12.95;12.35;;;;;;;28.89;60.07;101907.56;5074083;28;20032;-74
2022/09/11 08:08:21;;;;;;;12.85;12.18;;;;;;;28.96;59.60;101905.50;5075970;28;20024;-74
2022/09/11 08:10:47;;;;;;;12.98;12.38;;;;;;;30.07;58.58;101909.22;5055783;28;20059;-74
2022/09/11 08:13:12;;;;;;;13.00;12.20;;;;;;;29.92;56.29;101902.53;5073370;28;20424;-74
2022/09/11 08:15:45;;;;;;;13.68;12.88;;;;;;;30.05;56.58;101908.66;5071314;28;20456;-74
2022/09/11 08:18:10;;;;;;;11.52;11.02;;;;;;;29.37;57.51;101891.72;5065318;28;20040;-74
2022/09/11 08:20:35;;;;;;;12.35;11.60;;;;;;;29.26;57.83;101901.63;5036315;28;20032;-74
2022/09/11 08:23:01;;;;;;;12.48;11.77;;;;;;;28.62;58.84;101908.22;5071242;28;20095;-74
2022/09/11 08:25:27;;;;;;;13.50;12.85;;;;;;;29.17;60.45;101908.56;5072717;28;20430;-74
2022/09/11 08:27:53;;;;;;;13.18;12.40;;;;;;;28.68;58.15;101896.38;5069801;28;20044;-74
2022/09/11 08:30:18;;;;;;;13.43;12.88;;;;;;;27.53;59.50;101900.09;5068634;28;20032;-74
2022/09/11 08:32:43;;;;;;;9.50;9.10;;;;;;;27.05;61.11;101907.38;5070620;28;20025;-74
2022/09/11 08:35:09;;;;;;;6.00;5.50;;;;;;;26.47;62.97;101916.97;5070178;28;20356;-74
2022/09/11 08:37:34;;;;;;;5.35;4.95;;;;;;;27.22;64.48;101908.34;5069366;28;20459;-74
2022/09/11 08:40:00;;;;;;;7.88;7.50;;;;;;;27.61;60.39;101910.53;5064825;28;20033;-74
2022/09/11 08:42:27;;;;;;;10.63;6.20;;;;;;;27.08;61.25;101910.41;5070793;28;20033;-74
2022/09/11 08:44:57;;;;;;;5.15;4.72;;;;;;;26.57;62.83;101895.63;5076727;28;20396;-74
2022/09/11 08:47:30;;;;;;;3.72;3.42;;;;;;;25.99;63.63;101890.78;5069364;28;20040;-74
2022/09/11 08:50:06;;;;;;;4.72;4.43;;;;;;;26.62;64.66;101903.06;5075708;28;20024;-74
2022/09/11 08:52:35;;;;;;;4.68;4.38;;;;;;;27.90;61.49;101920.41;5075740;28;20040;-74
2022/09/11 08:55:01;;;;;;;11.82;11.07;;;;;;;28.87;58.31;101923.28;5052245;28;20235;-74
2022/09/11 08:58:02;;;;;;;12.25;11.57;;;;;;;28.49;57.37;101927.53;5072576;28;20527;-74
2022/09/11 09:00:58;;;;;;;13.55;12.93;;;;;;;28.75;59.20;101923.38;5004273;28;20439;-74
2022/09/11 09:03:52;;;;;;;14.98;14.15;;;;;;;29.99;56.29;101909.69;4983626;28;20034;-74
2022/09/11 09:06:42;;;;;;;15.45;14.85;;;;;;;29.89;55.98;101927.53;5002942;28;20033;-74
2022/09/11 09:09:16;;;;;;;12.63;12.10;;;;;;;28.70;57.56;101926.84;4998803;28;20025;-74
2022/09/11 09:12:14;;;;;;;8.65;8.20;;;;;;;27.59;59.72;101927.06;4996524;28;20057;-74
2022/09/11 09:14:57;;;;;;;4.43;4.03;;;;;;;25.85;63.51;101909.03;4995712;28;20042;-74
2022/09/11 09:17:35;;;;;;;3.03;2.78;;;;;;;25.91;63.01;101923.56;4998541;28;20042;-74
2022/09/11 09:20:09;;;;;;;4.22;3.83;;;;;;;25.33;64.90;101924.78;4995339;28;20034;-74
2022/09/11 09:22:51;;;;;;;5.00;4.60;;;;;;;24.59;68.22;101911.00;4997090;28;20026;-74
2022/09/11 09:25:21;;;;;;;5.68;5.28;;;;;;;24.32;70.19;101915.66;4997857;28;20065;-74
2022/09/11 09:28:12;;;;;;;6.25;5.75;;;;;;;26.09;64.20;101931.66;4997975;28;20425;-74
2022/09/11 09:30:48;;;;;;;5.65;4.03;;;;;;;26.36;61.70;101921.31;5001303;28;20045;-74
2022/09/11 09:33:32;;;;;;;3.58;3.35;;;;;;;26.79;60.73;101928.41;4999749;28;20472;-74
2022/09/11 09:36:16;;;;;;;3.60;3.33;;;;;;;26.98;60.10;101922.91;4987913;28;20057;-74
2022/09/11 09:38:43;;;;;;;3.13;2.92;;;;;;;27.38;59.73;101924.97;5078673;28;20025;-74
2022/09/11 09:41:33;;;;;;;4.00;3.75;;;;;;;27.78;60.44;101929.63;5044755;28;20558;-74
2022/09/11 09:44:12;;;;;;;5.20;3.90;;;;;;;27.95;58.08;101932.44;5076678;28;20028;-73
2022/09/11 09:46:44;;;;;;;6.05;5.22;;;;;;;28.09;57.28;101931.94;5077032;28;20028;-74
2022/09/11 09:49:13;;;;;;;5.57;5.30;;;;;;;27.77;58.22;101934.22;5079563;28;20032;-74
2022/09/11 09:51:39;;;;;;;4.88;4.47;;;;;;;27.63;58.10;101924.69;5076424;28;20028;-74
2022/09/11 09:54:08;;;;;;;3.85;3.03;;;;;;;26.87;60.17;101935.34;5080028;28;20099;-73
2022/09/11 09:56:36;;;;;;;3.22;2.92;;;;;;;26.65;59.99;101933.22;5058558;28;20033;-74
2022/09/11 09:59:07;;;;;;;4.22;3.92;;;;;;;25.73;61.49;101944.09;5072028;28;20059;-72
2022/09/11 10:01:53;;;;;;;3.80;3.50;;;;;;;25.41;63.63;101928.03;5076892;28;20448;-73
2022/09/11 10:04:23;;;;;;;3.83;3.63;;;;;;;25.75;63.19;101943.88;5077603;28;20484;-72
2022/09/11 10:07:03;;;;;;;3.80;3.43;;;;;;;25.84;62.08;101931.72;5076728;28;20033;-73
2022/09/11 10:09:29;;;;;;;3.08;2.72;;;;;;;24.84;61.51;101922.63;5081075;28;20051;-72
2022/09/11 10:12:04;;;;;;;3.97;3.60;;;;;;;25.22;65.20;101939.84;5070342;28;20088;-72
2022/09/11 10:14:33;;;;;;;4.90;4.57;;;;;;;25.78;62.75;101943.41;5077109;28;20332;-73
2022/09/11 10:17:01;;;;;;;3.88;3.67;;;;;;;25.73;61.40;101927.88;5074624;28;20040;-72
2022/09/11 10:19:36;;;;;;;4.07;3.78;;;;;;;26.42;61.13;101933.09;5079613;28;20028;-74
2022/09/11 10:22:25;;;;;;;3.25;2.85;;;;;;;25.84;61.15;101947.94;5076204;28;20480;-72
2022/09/11 10:25:15;;;;;;;5.10;3.63;;;;;;;25.34;62.51;101942.63;5072108;28;20086;-72
2022/09/11 10:28:01;;;;;;;3.85;3.65;;;;;;;24.39;64.24;101946.16;5078466;28;20063;-72
2022/09/11 10:30:41;;;;;;;4.03;3.42;;;;;;;24.04;65.83;101946.53;5078807;28;20090;-72
2022/09/11 10:33:25;;;;;;;3.45;3.25;;;;;;;23.90;68.43;101937.63;5077044;28;20021;-73
2022/09/11 10:35:54;;;;;;;3.65;3.45;;;;;;;24.08;68.33;101936.94;5079028;28;20404;-72
2022/09/11 10:38:25;;;;;;;3.85;3.65;;;;;;;23.77;67.14;101943.88;5078201;28;20035;-73
2022/09/11 10:40:57;;;;;;;7.38;7.03;;;;;;;23.75;69.54;101943.25;5077874;28;20051;-72
2022/09/11 10:43:30;;;;;;;13.90;13.25;;;;;;;23.59;70.67;101932.91;5080014;28;20027;-72
2022/09/11 10:46:21;;;;;;;14.18;13.60;;;;;;;23.52;70.40;101932.09;5076429;28;20565;-74
2022/09/11 10:48:54;;;;;;;16.98;16.20;;;;;;;23.25;70.22;101921.34;5076872;28;20032;-74
2022/09/11 10:51:20;;;;;;;16.35;15.57;;;;;;;23.09;70.86;101943.31;5069960;28;20507;-73
2022/09/11 10:54:04;;;;;;;25.80;24.73;;;;;;;22.99;73.57;101954.44;5078991;28;20037;-74
2022/09/11 10:56:34;;;;;;;33.28;31.77;;;;;;;22.82;74.03;101956.72;5062099;28;20392;-73
2022/09/11 10:59:05;;;;;;;37.33;35.83;;;;;;;22.59;76.46;101955.22;5076762;28;20073;-76
2022/09/11 11:01:31;;;;;;;24.65;23.38;;;;;;;22.29;77.97;101954.69;5072575;28;20070;-78
2022/09/11 11:03:57;;;;;;;17.13;16.17;;;;;;;21.93;79.69;101946.88;5071751;28;20028;-77
2022/09/11 11:06:33;;;;;;;9.10;8.70;;;;;;;21.72;81.84;101953.97;5076094;28;20085;-76
2022/09/11 11:09:11;;;;;;;10.50;10.00;;;;;;;21.50;81.28;101952.38;5075917;28;20050;-73
2022/09/11 11:11:54;;;;;;;14.48;13.75;;;;;;;21.56;80.98;101951.59;5073871;28;20519;-75
2022/09/11 11:14:39;;;;;;;15.55;14.93;;;;;;;21.63;80.03;101948.94;5060771;28;20377;-75
2022/09/11 11:17:21;;;;;;;9.05;8.60;;;;;;;21.71;82.03;101948.78;5071657;28;20474;-73
2022/09/11 11:20:08;;;;;;;13.43;12.82;;;;;;;21.78;81.28;101955.88;5071592;28;20032;-73
2022/09/11 11:23:06;;;;;;;13.75;13.05;;;;;;;21.85;80.17;101949.72;5070092;28;20420;-72
2022/09/11 11:25:43;;;;;;;16.02;15.43;;;;;;;21.87;81.57;101948.47;4990990;28;20038;-73
2022/09/11 11:28:23;;;;;;;17.88;17.15;;;;;;;21.81;80.42;101941.19;4993521;28;20112;-73